createdAt,value
2023-04-24T00:01:09.961Z,0.63
2023-04-24T00:06:12.778Z,0.73
2023-04-24T00:11:17.126Z,0.75
2023-04-24T00:21:22.656Z,0.50
2023-04-24T00:26:26.715Z,0.47
2023-04-24T00:36:31.692Z,0.52
2023-04-24T00:41:35.530Z,0.47
2023-04-24T00:46:38.202Z,0.40
2023-04-24T00:51:41.737Z,0.50
2023-04-24T00:56:46.198Z,0.50
2023-04-24T01:01:49.162Z,0.17
2023-04-24T01:06:53.520Z,0.20
2023-04-24T01:11:58.154Z,0.50
2023-04-24T01:17:01.269Z,0.55
2023-04-24T01:22:04.677Z,0.47
2023-04-24T01:27:08.831Z,0.77
2023-04-24T01:32:11.885Z,0.30
2023-04-24T01:37:14.842Z,0.65
2023-04-24T01:42:18.942Z,0.35
2023-04-24T01:47:21.558Z,0.50
2023-04-24T01:52:24.942Z,0.57
2023-04-24T01:57:28.933Z,0.15
2023-04-24T02:07:34.581Z,0.50
2023-04-24T02:17:41.847Z,0.30
2023-04-24T02:22:45.188Z,0.20
2023-04-24T02:27:47.729Z,0.20
2023-04-24T02:32:53.521Z,0.60
2023-04-24T02:37:56.060Z,0.40
2023-04-24T02:42:58.573Z,0.28
2023-04-24T02:48:03.153Z,0.30
2023-04-24T02:53:05.751Z,0.30
2023-04-24T02:58:08.222Z,0.25
2023-04-24T03:03:12.748Z,0.57
2023-04-24T03:08:16.171Z,0.22
2023-04-24T03:13:18.798Z,0.50
2023-04-24T03:18:22.807Z,0.43
2023-04-24T03:28:28.014Z,0.20
2023-04-24T03:33:31.991Z,0.38
2023-04-24T03:38:35.360Z,0.60
2023-04-24T03:43:38.971Z,0.20
2023-04-24T03:48:42.909Z,0.25
2023-04-24T03:53:45.703Z,0.13
2023-04-24T03:58:49.010Z,0.30
2023-04-24T04:03:53.069Z,0.43
2023-04-24T04:08:55.933Z,0.00
2023-04-24T04:13:58.752Z,0.60
2023-04-24T04:19:03.949Z,0.85
2023-04-24T04:24:08.204Z,0.47
2023-04-24T04:29:11.850Z,0.30
2023-04-24T04:34:15.804Z,0.25
2023-04-24T04:39:19.608Z,0.30
2023-04-24T04:44:22.479Z,0.20
2023-04-24T04:49:29.380Z,0.30
2023-04-24T04:54:32.290Z,0.55
2023-04-24T04:59:34.903Z,0.50
2023-04-24T05:04:38.878Z,0.10
2023-04-24T05:09:41.754Z,0.22
2023-04-24T05:14:44.515Z,0.38
2023-04-24T05:19:49.235Z,0.45
2023-04-24T05:24:52.826Z,0.43
2023-04-24T05:29:55.978Z,0.50
2023-04-24T05:35:00.717Z,0.35
2023-04-24T05:40:06.480Z,0.17
2023-04-24T05:45:15.738Z,0.22
2023-04-24T05:50:20.519Z,0.22
2023-04-24T05:55:23.857Z,0.50
2023-04-24T06:00:26.820Z,0.40
2023-04-24T06:05:31.274Z,0.57
2023-04-24T06:10:35.160Z,0.50
2023-04-24T06:15:37.686Z,0.30
2023-04-24T06:20:41.700Z,0.40
2023-04-24T06:25:44.900Z,0.20
2023-04-24T06:30:47.660Z,0.30
2023-04-24T06:35:51.551Z,0.50
2023-04-24T06:40:54.025Z,0.40
2023-04-24T06:45:57.014Z,0.40
2023-04-24T06:56:05.040Z,0.50
2023-04-24T07:01:08.485Z,0.40
2023-04-24T07:06:12.307Z,0.20
2023-04-24T07:11:18.823Z,0.40
2023-04-24T07:16:22.263Z,0.20
2023-04-24T07:21:25.843Z,0.20
2023-04-24T07:26:29.920Z,0.28
2023-04-24T07:31:33.605Z,0.32
2023-04-24T07:36:36.293Z,0.40
2023-04-24T07:41:41.132Z,0.15
2023-04-24T07:46:51.415Z,0.32
2023-04-24T07:51:53.971Z,0.30
2023-04-24T07:56:57.955Z,0.35
2023-04-24T08:02:02.173Z,0.20
2023-04-24T08:07:04.829Z,0.40
2023-04-24T08:12:09.736Z,0.35
2023-04-24T08:17:12.436Z,0.40
2023-04-24T08:22:25.066Z,0.40
2023-04-24T08:27:29.479Z,0.28
2023-04-24T08:32:32.219Z,0.32
2023-04-24T08:42:40.824Z,0.47
2023-04-24T08:47:46.307Z,0.50
2023-04-24T08:52:51.500Z,0.70
2023-04-24T08:57:57.015Z,0.70
2023-04-24T09:03:02.940Z,0.80
2023-04-24T09:08:12.909Z,0.65
2023-04-24T09:13:21.960Z,0.88
2023-04-24T09:18:27.253Z,0.80
2023-04-24T09:23:45.281Z,0.68
2023-04-24T09:28:56.403Z,1.08
2023-04-24T09:34:08.898Z,1.10
2023-04-24T09:39:18.715Z,1.30
2023-04-24T09:44:30.656Z,0.90
2023-04-24T09:49:40.877Z,0.63
2023-04-24T09:54:58.002Z,1.05
2023-04-24T10:00:43.022Z,1.13
2023-04-24T10:06:01.280Z,1.67
2023-04-24T10:11:08.538Z,1.30
2023-04-24T10:16:24.913Z,0.80
2023-04-24T10:21:32.594Z,1.00
2023-04-24T10:26:41.701Z,1.48
2023-04-24T10:31:49.107Z,1.10
2023-04-24T10:36:58.573Z,0.75
2023-04-24T10:42:03.297Z,1.10
2023-04-24T10:47:18.882Z,1.10
2023-04-24T10:52:55.112Z,0.93
2023-04-24T10:58:08.659Z,1.00
2023-04-24T11:03:53.632Z,0.63
2023-04-24T11:09:04.968Z,0.75
2023-04-24T11:14:22.525Z,0.88
2023-04-24T11:19:35.571Z,0.80
2023-04-24T11:24:47.131Z,1.05
2023-04-24T11:29:56.254Z,1.30
2023-04-24T11:35:11.860Z,1.00
2023-04-24T12:01:15.711Z,0.77
2023-04-24T12:06:22.964Z,0.70
2023-04-24T12:21:56.072Z,0.60
2023-04-24T12:27:22.836Z,0.98
2023-04-24T12:32:28.509Z,1.30
2023-04-24T12:38:02.759Z,1.20
2023-04-24T12:43:17.520Z,1.00
2023-04-24T12:48:23.479Z,1.05
2023-04-24T12:53:33.339Z,1.20
2023-04-24T12:58:55.635Z,1.13
2023-04-24T13:04:09.034Z,0.93
2023-04-24T13:14:44.853Z,0.90
2023-04-24T13:19:52.664Z,1.42
2023-04-24T13:25:02.645Z,1.10
2023-04-24T13:30:21.573Z,1.60
2023-04-24T13:40:37.147Z,1.30
2023-04-24T13:45:49.050Z,1.10
2023-04-24T13:50:54.403Z,1.10
2023-04-24T13:56:00.778Z,1.50
2023-04-24T14:06:31.917Z,1.10
2023-04-24T14:11:46.854Z,1.38
2023-04-24T14:16:52.147Z,1.27
2023-04-24T14:21:59.903Z,1.50
2023-04-24T14:27:05.327Z,1.30
2023-04-24T14:32:16.153Z,1.10
2023-04-24T14:37:21.873Z,1.20
2023-04-24T14:42:31.344Z,1.20
2023-04-24T14:47:47.054Z,1.08
2023-04-24T14:53:05.704Z,1.30
2023-04-24T14:58:17.886Z,1.00
2023-04-24T15:03:37.913Z,1.30
2023-04-24T15:08:50.394Z,1.55
2023-04-24T15:14:01.442Z,1.10
2023-04-24T15:19:11.308Z,1.05
2023-04-24T15:24:20.560Z,1.10
2023-04-24T15:29:32.282Z,1.15
2023-04-24T15:35:07.131Z,1.30
2023-04-24T15:40:31.459Z,1.25
2023-04-24T15:45:46.993Z,1.05
2023-04-24T15:50:56.681Z,0.95
2023-04-24T15:56:03.007Z,1.00
2023-04-24T16:01:08.984Z,0.93
2023-04-24T16:06:27.936Z,1.13
2023-04-24T16:11:46.353Z,0.98
2023-04-24T16:16:56.028Z,1.00
2023-04-24T16:22:05.229Z,0.90
2023-04-24T16:27:24.214Z,1.02
2023-04-24T16:32:33.169Z,1.15
2023-04-24T16:37:46.499Z,1.08
2023-04-24T16:42:55.403Z,0.90
2023-04-24T16:48:04.817Z,0.70
2023-04-24T16:58:26.103Z,0.80
2023-04-24T17:03:29.647Z,0.73
2023-04-24T17:08:41.883Z,0.70
2023-04-24T17:13:47.243Z,0.63
2023-04-24T17:19:00.058Z,0.60
2023-04-24T17:24:19.068Z,0.80
2023-04-24T17:29:25.491Z,0.90
2023-04-24T17:34:29.727Z,1.00
2023-04-24T17:45:12.956Z,0.70
2023-04-24T17:50:22.094Z,1.00
2023-04-24T17:55:32.422Z,0.90
2023-04-24T18:00:38.539Z,1.00
2023-04-24T18:05:46.808Z,0.70
2023-04-24T18:11:25.909Z,1.00
2023-04-24T18:16:43.684Z,0.82
2023-04-24T18:21:49.967Z,0.68
2023-04-24T18:26:58.056Z,0.88
2023-04-24T18:32:19.970Z,1.20
2023-04-24T18:37:31.969Z,0.82
2023-04-24T21:17:17.864Z,1.50
2023-04-24T21:22:21.691Z,2.05
2023-04-24T21:27:25.437Z,1.35
2023-04-24T21:32:30.366Z,1.23
2023-04-24T21:42:36.635Z,1.42
2023-04-24T21:47:40.599Z,0.80
2023-04-24T21:52:44.343Z,1.40
2023-04-24T21:57:46.857Z,2.00
2023-04-24T22:02:52.018Z,1.67
2023-04-24T22:07:56.628Z,1.42
2023-04-24T22:12:59.748Z,1.50
2023-04-24T22:18:06.588Z,0.93
2023-04-24T22:23:10.221Z,1.20
2023-04-24T22:28:13.044Z,1.43
2023-04-24T22:33:18.067Z,0.75
2023-04-24T22:38:21.737Z,0.52
2023-04-24T22:43:25.853Z,1.58
2023-04-24T22:53:32.279Z,1.63
2023-04-24T23:03:39.790Z,1.15
2023-04-24T23:08:44.355Z,0.35
2023-04-24T23:13:47.595Z,1.05
2023-04-24T23:18:51.042Z,1.05
2023-04-24T23:23:55.328Z,0.77
2023-04-24T23:28:58.715Z,1.20
2023-04-24T23:34:02.041Z,0.90
2023-04-24T23:39:06.792Z,1.55
2023-04-24T23:44:10.264Z,0.77
2023-04-24T23:49:15.120Z,1.48
2023-04-24T23:54:20.364Z,0.57
2023-04-24T23:59:23.658Z,1.33
